INFORMACIÓN METAR y TAF
METAR FOR LPFR
ADDS - METARS form results

(0705 UTC 24 January 2019)
Data provider http://aviationweather.gov/metar/data/
 
METAR text: LPFR 240700Z 28006KT 240V320 9999 SCT025 BKN028 14/10 Q1015
Conditions at: LPFR (FARO , PT) observed 0700 UTC 24 January 2019
Temperature: 14.0°C (57°F)
Dewpoint: 10.0°C (50°F) [RH = 77%]
Pressure (altimeter): 29.97 inches Hg (1015.0 mb)
Winds: from the W (280 degrees) at 7 MPH (6 knots; 3.1 m/s)
Visibility: 6 or more miles (10+ km)
Ceiling: 2800 feet AGL
Clouds: scattered clouds at 2500 feet AGL
broken clouds at 2800 feet AGL
Weather: no significant weather observed at this time

METAR text: LPFR 240630Z 31009KT 9999 SCT025 BKN028 15/10 Q1015
Conditions at: LPFR (FARO , PT) observed 0630 UTC 24 January 2019
Temperature: 15.0°C (59°F)
Dewpoint: 10.0°C (50°F) [RH = 72%]
Pressure (altimeter): 29.97 inches Hg (1015.0 mb)
Winds: from the NW (310 degrees) at 10 MPH (9 knots; 4.6 m/s)
Visibility: 6 or more miles (10+ km)
Ceiling: 2800 feet AGL
Clouds: scattered clouds at 2500 feet AGL
broken clouds at 2800 feet AGL
Weather: no significant weather observed at this time

Forecast for: LPFR (FARO , PT)
Text: TAF LPFR 240500Z 2406/2506 32010KT 9999 BKN030
Forecast period: 0600 to 0900 UTC 24 January 2019
Forecast type: FROM: standard forecast or significant change
Winds: from the NW (320 degrees) at 12 MPH (10 knots; 5.1 m/s)
Visibility: 6 or more miles 10+ km)
Ceiling: 3000 feet AGL
Clouds: broken clouds at 3000 feet AGL
Weather: no significant weather forecast for this period
Text: BECMG 2409/2412 35012KT FEW035
Forecast period: 0900 to 2100 UTC 24 January 2019
Forecast type: BECOMING: Conditions expected to become as follows by 1200 UTC 24 January 2019
Winds: from the N (350 degrees) at 14 MPH (12 knots; 6.2 m/s)
Visibility: 6 or more miles 10+ km)
Ceiling: at least 12,000 feet AGL
Clouds: few clouds at 3500 feet AGL
Weather: no significant weather forecast for this period
Text: BECMG 2421/2424 03005KT
Forecast period: 2100 UTC 24 January 2019 to 0600 UTC 25 January 2019
Forecast type: BECOMING: Conditions expected to become as follows by 0000 UTC 25 January 2019
Winds: from the NNE (30 degrees) at 6 MPH (5 knots; 2.6 m/s)
Visibility: 6 or more miles 10+ km)
Ceiling: at least 12,000 feet AGL
Clouds: few clouds at 3500 feet AGL
Weather: no significant weather forecast for this period

 MAPA DE AEROPUERTO

 INFORMACIÓN DE PISTA
Pista 10 Longitud 8169 ft Ancho 148 ft
Elevación 24 ft Umbral desplazado 148 ft Rumbo de pista 100
Pista 28 Longitud 8169 ft Ancho 148 ft
Elevación 18 ft Umbral desplazado 148 ft Rumbo de pista 280

 FRECUANCIAS DEL AEROPUERTO
Tipo APP Nombre APP Frecuencia 119.4 MHZ
Tipo ATIS Nombre ATIS Frecuencia 124.2 MHZ
Tipo GND Nombre GND Frecuencia 118.575 MHZ
Tipo TWR Nombre TWR Frecuencia 118.2 MHZ

 RADIO AYUDAS DEL AEROPUERTO
Tipo NDB Nombre Faro Frecuencia 332 KHZ
Tipo VOR-DME Nombre Faro Frecuencia 112800 KHZ



Powered by Virtual Airlines Manager [v2.6.2]